Time;durP1;ratioP1;P1;durP2;ratioP2;P2;SDS_P1;SDS_P2;PMS_P1;PMS_P2;Temp;Humidity;BMP_temperature;BMP_pressure;BME280_temperature;BME280_humidity;BME280_pressure;Samples;Min_cycle;Max_cycle;Signal;HPM_P1;HPM_P2
2021/01/17 00:01:41;;;;;;;;;;;23.50;55.60;;;;;;5029964;28;19909;-84
2021/01/17 00:04:08;;;;;;;;;;;23.40;57.20;;;;;;5041653;28;20268;-84
2021/01/17 00:06:40;;;;;;;;;;;23.60;58.70;;;;;;5030896;28;19980;-83
2021/01/17 00:09:10;;;;;;;;;;;23.90;57.00;;;;;;5028431;28;19916;-84
2021/01/17 00:11:36;;;;;;;;;;;24.00;57.00;;;;;;5028876;28;20323;-81
2021/01/17 00:14:06;;;;;;;;;;;24.20;58.30;;;;;;5027015;28;20321;-81
2021/01/17 00:16:33;;;;;;;;;;;24.30;59.80;;;;;;5029529;28;20016;-83
2021/01/17 00:18:59;;;;;;;;;;;24.10;61.40;;;;;;5029927;28;19967;-86
2021/01/17 00:21:32;;;;;;;;;;;24.10;63.80;;;;;;5030942;28;20272;-81
2021/01/17 00:24:01;;;;;;;;;;;24.10;64.20;;;;;;5029354;28;19909;-81
2021/01/17 00:26:34;;;;;;;;;;;24.20;65.10;;;;;;5011807;28;19924;-80
2021/01/17 00:29:04;;;;;;;;;;;24.10;66.10;;;;;;5024415;28;19961;-87
2021/01/17 00:31:34;;;;;;;;;;;24.20;65.90;;;;;;5029911;28;19917;-83
2021/01/17 00:34:04;;;;;;;;;;;24.30;62.10;;;;;;5028704;28;19970;-87
2021/01/17 00:36:36;;;;;;;;;;;24.30;65.80;;;;;;5030105;28;19926;-86
2021/01/17 00:39:04;;;;;;;;;;;24.20;66.20;;;;;;5029804;28;19949;-85
2021/01/17 00:41:31;;;;;;;;;;;23.90;67.20;;;;;;5030687;28;19917;-87
2021/01/17 00:43:58;;;;;;;;;;;23.90;66.60;;;;;;5060287;28;20008;-86
2021/01/17 00:46:25;;;;;;;;;;;24.00;65.60;;;;;;5034255;28;19917;-86
2021/01/17 00:48:51;;;;;;;;;;;24.00;67.40;;;;;;5034730;28;19959;-85
2021/01/17 00:51:19;;;;;;;;;;;24.40;67.00;;;;;;5034378;28;19982;-83
2021/01/17 00:53:50;;;;;;;;;;;24.60;65.40;;;;;;5034912;28;19913;-87
2021/01/17 00:56:23;;;;;;;;;;;25.00;63.10;;;;;;5036280;28;19921;-89
2021/01/17 00:58:50;;;;;;;;;;;25.10;61.90;;;;;;5037152;27;20299;-85
2021/01/17 01:01:16;;;;;;;;;;;25.20;61.60;;;;;;5033645;28;19917;-82
2021/01/17 01:03:43;;;;;;;;;;;25.30;60.90;;;;;;5034181;28;19909;-86
2021/01/17 01:06:16;;;;;;;;;;;25.40;62.50;;;;;;5063695;27;19925;-82
2021/01/17 01:08:42;;;;;;;;;;;25.80;61.50;;;;;;5143446;27;20002;-84
2021/01/17 01:11:09;;;;;;;;;;;26.00;59.00;;;;;;5061165;27;19971;-82
2021/01/17 01:13:35;;;;;;;;;;;26.30;58.20;;;;;;5051618;27;19984;-84
2021/01/17 01:16:02;;;;;;;;;;;26.60;57.90;;;;;;5141902;27;19973;-83
2021/01/17 01:18:31;;;;;;;;;;;26.70;60.50;;;;;;5094036;27;20012;-81
2021/01/17 01:20:58;;;;;;;;;;;26.30;57.80;;;;;;5035840;28;19920;-83
2021/01/17 01:23:25;;;;;;;;;;;25.90;58.40;;;;;;5033834;28;19917;-83
2021/01/17 01:25:51;;;;;;;;;;;25.70;61.20;;;;;;5034193;28;19974;-85
2021/01/17 01:28:19;;;;;;;;;;;25.90;60.00;;;;;;5035476;28;19909;-83
2021/01/17 01:30:46;;;;;;;;;;;26.20;60.50;;;;;;5034960;28;19917;-86
2021/01/17 01:33:15;;;;;;;;;;;26.20;60.70;;;;;;5066421;27;19910;-86
2021/01/17 01:35:42;;;;;;;;;;;26.50;60.50;;;;;;5048636;28;19936;-86
2021/01/17 01:38:09;;;;;;;;;;;26.70;59.10;;;;;;5033531;28;20374;-81
2021/01/17 01:40:36;;;;;;;;;;;26.80;57.00;;;;;;5033854;28;19914;-84
2021/01/17 01:43:02;;;;;;;;;;;26.30;59.20;;;;;;5034440;28;19954;-83
2021/01/17 01:45:29;;;;;;;;;;;26.20;60.00;;;;;;5049941;28;19909;-83
2021/01/17 01:47:56;;;;;;;;;;;26.40;60.80;;;;;;5066881;27;20004;-87
2021/01/17 01:50:23;;;;;;;;;;;26.50;60.30;;;;;;5034036;28;20527;-85
2021/01/17 01:52:57;;;;;;;;;;;26.20;59.00;;;;;;5038420;28;19989;-84
2021/01/17 01:55:24;;;;;;;;;;;26.20;60.90;;;;;;5036744;28;19913;-85
2021/01/17 01:57:51;;;;;;;;;;;26.40;62.40;;;;;;5038839;28;20019;-84
2021/01/17 02:00:20;;;;;;;;;;;26.50;63.50;;;;;;5034672;28;19909;-86
2021/01/17 02:02:52;;;;;;;;;;;26.40;63.80;;;;;;5033975;28;19913;-82
2021/01/17 02:05:22;;;;;;;;;;;26.00;65.10;;;;;;5034417;27;19928;-80
2021/01/17 02:08:08;;;;;;;;;;;26.00;65.30;;;;;;5033513;28;19909;-86
2021/01/17 02:10:37;;;;;;;;;;;25.80;66.70;;;;;;5034875;28;19966;-86
2021/01/17 02:13:30;;;;;;;;;;;25.50;66.40;;;;;;5042536;27;19931;-78
2021/01/17 02:15:57;;;;;;;;;;;25.60;67.10;;;;;;5042248;28;20439;-85
2021/01/17 02:18:24;;;;;;;;;;;25.70;67.50;;;;;;5048417;27;20344;-82
2021/01/17 02:20:57;;;;;;;;;;;25.80;67.30;;;;;;5034304;28;19917;-83
2021/01/17 02:23:28;;;;;;;;;;;25.80;65.60;;;;;;5020798;28;19909;-85
2021/01/17 02:25:57;;;;;;;;;;;25.90;66.80;;;;;;5028966;28;19909;-85
2021/01/17 02:28:24;;;;;;;;;;;25.80;65.20;;;;;;5018139;28;19989;-81
2021/01/17 02:30:56;;;;;;;;;;;25.80;67.30;;;;;;5030337;28;20398;-81
2021/01/17 02:33:34;;;;;;;;;;;25.80;68.40;;;;;;5031939;28;20291;-85
2021/01/17 02:36:28;;;;;;;;;;;25.60;68.00;;;;;;5032882;28;20380;-84
2021/01/17 02:39:03;;;;;;;;;;;25.50;69.40;;;;;;5028969;28;19917;-83
2021/01/17 02:41:51;;;;;;;;;;;25.40;70.30;;;;;;5017877;28;20371;-85
2021/01/17 02:44:32;;;;;;;;;;;25.40;70.00;;;;;;5031834;28;19909;-85
2021/01/17 02:47:11;;;;;;;;;;;25.30;69.50;;;;;;5032902;28;19948;-82
2021/01/17 02:49:41;;;;;;;;;;;25.20;69.20;;;;;;5031302;28;19917;-84
2021/01/17 02:52:10;;;;;;;;;;;25.10;68.90;;;;;;5031454;28;19954;-87
2021/01/17 02:54:41;;;;;;;;;;;25.10;70.50;;;;;;5031156;28;19916;-82
2021/01/17 02:57:08;;;;;;;;;;;25.10;69.40;;;;;;5029964;28;19992;-83
2021/01/17 02:59:55;;;;;;;;;;;25.10;70.80;;;;;;5055213;27;19929;-84
2021/01/17 03:02:33;;;;;;;;;;;25.20;70.00;;;;;;5135121;27;19914;-87
2021/01/17 03:05:02;;;;;;;;;;;25.10;70.50;;;;;;5133295;27;19966;-85
2021/01/17 03:07:30;;;;;;;;;;;24.80;69.40;;;;;;5040664;27;19913;-85
2021/01/17 03:10:01;;;;;;;;;;;24.50;72.00;;;;;;5028856;28;19966;-84
2021/01/17 03:12:28;;;;;;;;;;;24.60;72.00;;;;;;5030219;28;19986;-84
2021/01/17 03:14:55;;;;;;;;;;;24.60;71.90;;;;;;5028932;28;20438;-85
2021/01/17 03:17:21;;;;;;;;;;;24.70;71.10;;;;;;5031801;28;20328;-82
2021/01/17 03:19:51;;;;;;;;;;;24.80;70.80;;;;;;5031190;28;20438;-85
2021/01/17 03:22:18;;;;;;;;;;;24.80;71.50;;;;;;5063432;27;19916;-84
2021/01/17 03:24:44;;;;;;;;;;;24.90;70.30;;;;;;5029949;28;19929;-88
2021/01/17 03:27:11;;;;;;;;;;;24.80;70.60;;;;;;5037615;28;19897;-84
2021/01/17 03:29:37;;;;;;;;;;;24.70;70.90;;;;;;5080109;27;19919;-85
2021/01/17 03:32:04;;;;;;;;;;;24.70;71.50;;;;;;5030007;28;19910;-84
2021/01/17 03:34:32;;;;;;;;;;;24.70;71.10;;;;;;5029122;28;20024;-85
2021/01/17 03:36:58;;;;;;;;;;;24.70;72.00;;;;;;5053559;28;19921;-86
2021/01/17 03:39:25;;;;;;;;;;;24.60;71.40;;;;;;5024900;28;19913;-85
2021/01/17 03:41:52;;;;;;;;;;;24.60;71.00;;;;;;5030730;28;19913;-86
2021/01/17 03:44:18;;;;;;;;;;;24.60;70.00;;;;;;5032126;28;20271;-83
2021/01/17 03:46:48;;;;;;;;;;;24.40;71.30;;;;;;5031448;28;19914;-83
2021/01/17 03:49:18;;;;;;;;;;;24.50;70.10;;;;;;5031501;28;19909;-86
2021/01/17 03:51:48;;;;;;;;;;;24.30;70.60;;;;;;5035249;28;19913;-84
2021/01/17 03:54:14;;;;;;;;;;;24.30;71.50;;;;;;5052692;28;19909;-84
2021/01/17 03:56:41;;;;;;;;;;;24.20;72.40;;;;;;5037814;28;19917;-86
2021/01/17 03:59:08;;;;;;;;;;;24.20;71.80;;;;;;5031989;28;20371;-85
2021/01/17 04:01:35;;;;;;;;;;;24.10;72.00;;;;;;5033159;28;19914;-83
2021/01/17 04:04:02;;;;;;;;;;;24.20;72.40;;;;;;5010003;28;19914;-82
2021/01/17 04:06:29;;;;;;;;;;;24.10;72.60;;;;;;5014099;28;19918;-86
2021/01/17 04:08:55;;;;;;;;;;;24.10;72.60;;;;;;5034516;28;20391;-84
2021/01/17 04:11:22;;;;;;;;;;;24.20;72.10;;;;;;5035407;28;19913;-84
2021/01/17 04:13:49;;;;;;;;;;;24.30;71.80;;;;;;5036868;28;19952;-83
2021/01/17 04:16:18;;;;;;;;;;;24.20;72.50;;;;;;5051823;28;19917;-83
2021/01/17 04:18:54;;;;;;;;;;;24.30;73.50;;;;;;5065121;27;19953;-81
2021/01/17 04:21:23;;;;;;;;;;;24.30;73.00;;;;;;5033069;28;19924;-83
2021/01/17 04:23:50;;;;;;;;;;;24.20;72.90;;;;;;5023045;28;20037;-87
2021/01/17 04:26:18;;;;;;;;;;;24.10;71.50;;;;;;5035323;28;19909;-83
2021/01/17 04:28:45;;;;;;;;;;;24.10;72.30;;;;;;5045824;28;19962;-85
2021/01/17 04:34:16;;;;;;;;;;;24.20;72.40;;;;;;5040529;28;19909;-78
2021/01/17 04:36:47;;;;;;;;;;;24.00;72.60;;;;;;5033138;28;19923;-82
2021/01/17 04:39:14;;;;;;;;;;;24.10;73.50;;;;;;5064227;28;19913;-80
2021/01/17 04:41:47;;;;;;;;;;;24.20;72.70;;;;;;5030420;28;20481;-81
2021/01/17 04:44:19;;;;;;;;;;;24.30;72.60;;;;;;5078955;28;19908;-81
2021/01/17 04:46:54;;;;;;;;;;;24.30;73.10;;;;;;5090655;27;19913;-80
2021/01/17 04:49:22;;;;;;;;;;;24.50;72.70;;;;;;5054458;27;19917;-84
2021/01/17 04:51:50;;;;;;;;;;;24.50;71.70;;;;;;5028020;28;20253;-82
2021/01/17 04:54:17;;;;;;;;;;;24.50;72.00;;;;;;5027814;28;19953;-85
2021/01/17 04:56:49;;;;;;;;;;;24.20;73.30;;;;;;5029946;28;19935;-82
2021/01/17 04:59:19;;;;;;;;;;;24.30;73.70;;;;;;5030050;28;19910;-83
2021/01/17 05:01:49;;;;;;;;;;;24.40;72.50;;;;;;5029409;28;19913;-82
2021/01/17 05:04:23;;;;;;;;;;;24.40;72.80;;;;;;5027533;28;19937;-83
2021/01/17 05:06:56;;;;;;;;;;;24.30;73.00;;;;;;5029434;28;19970;-84
2021/01/17 05:09:30;;;;;;;;;;;24.20;73.20;;;;;;5042262;28;20008;-81
2021/01/17 05:12:15;;;;;;;;;;;24.10;74.20;;;;;;5076166;27;19957;-81
2021/01/17 05:14:46;;;;;;;;;;;24.10;73.60;;;;;;5061045;27;19909;-82
2021/01/17 05:17:20;;;;;;;;;;;24.10;73.60;;;;;;5027907;28;19931;-82
2021/01/17 05:19:47;;;;;;;;;;;24.10;74.30;;;;;;5028767;28;19921;-82
2021/01/17 05:22:14;;;;;;;;;;;24.20;75.40;;;;;;5028463;28;19954;-80
2021/01/17 05:24:45;;;;;;;;;;;24.20;73.40;;;;;;5030191;28;19955;-84
2021/01/17 05:27:11;;;;;;;;;;;24.20;72.70;;;;;;5031351;28;20385;-80
2021/01/17 05:29:38;;;;;;;;;;;24.00;73.20;;;;;;5030961;28;19913;-83
2021/01/17 05:32:05;;;;;;;;;;;23.80;74.70;;;;;;5032213;28;19950;-83
2021/01/17 05:34:33;;;;;;;;;;;23.80;73.70;;;;;;5032048;28;19948;-82
2021/01/17 05:37:03;;;;;;;;;;;23.80;74.20;;;;;;5064796;28;20432;-83
2021/01/17 05:39:30;;;;;;;;;;;23.70;75.50;;;;;;5033626;28;19924;-82
2021/01/17 05:42:12;;;;;;;;;;;23.50;75.00;;;;;;5033408;28;20339;-80
2021/01/17 05:44:38;;;;;;;;;;;23.60;75.00;;;;;;5037313;27;19909;-81
2021/01/17 05:47:06;;;;;;;;;;;23.50;75.80;;;;;;5072987;27;19908;-84
2021/01/17 05:49:33;;;;;;;;;;;23.60;76.50;;;;;;5132873;27;19925;-85
2021/01/17 05:52:12;;;;;;;;;;;23.60;75.40;;;;;;5034766;27;19909;-81
2021/01/17 05:54:40;;;;;;;;;;;23.70;76.30;;;;;;5137284;27;19990;-84
2021/01/17 05:57:12;;;;;;;;;;;23.70;75.90;;;;;;5039501;27;19917;-86
2021/01/17 05:59:39;;;;;;;;;;;23.70;75.50;;;;;;5105672;27;20010;-86
2021/01/17 06:02:19;;;;;;;;;;;23.70;75.40;;;;;;5113722;27;20287;-88
2021/01/17 06:04:59;;;;;;;;;;;23.60;75.20;;;;;;5032031;28;19973;-86
2021/01/17 06:07:26;;;;;;;;;;;23.20;76.70;;;;;;5109803;27;20331;-85
2021/01/17 06:10:04;;;;;;;;;;;23.10;77.30;;;;;;5025775;27;19958;-82
2021/01/17 06:12:38;;;;;;;;;;;23.10;76.60;;;;;;5025959;28;19993;-82
2021/01/17 06:15:12;;;;;;;;;;;23.10;77.70;;;;;;5030966;28;19920;-85
2021/01/17 06:17:39;;;;;;;;;;;23.10;77.40;;;;;;5030894;28;19970;-84
2021/01/17 06:20:10;;;;;;;;;;;23.30;77.20;;;;;;5011543;28;19917;-82
2021/01/17 06:22:37;;;;;;;;;;;23.30;76.80;;;;;;5010809;28;19917;-87
2021/01/17 06:25:05;;;;;;;;;;;23.20;77.50;;;;;;5028715;28;19913;-84
2021/01/17 06:27:32;;;;;;;;;;;23.10;77.50;;;;;;5048755;28;19910;-86
2021/01/17 06:29:59;;;;;;;;;;;23.10;78.00;;;;;;5034752;28;19909;-85
2021/01/17 06:32:28;;;;;;;;;;;23.10;78.60;;;;;;5029010;28;19914;-80
2021/01/17 06:34:56;;;;;;;;;;;23.20;77.60;;;;;;5030197;28;19913;-82
2021/01/17 06:37:24;;;;;;;;;;;23.40;77.30;;;;;;5028878;28;19968;-81
2021/01/17 06:39:52;;;;;;;;;;;23.30;76.90;;;;;;5028574;28;19924;-83
2021/01/17 06:42:20;;;;;;;;;;;23.20;76.90;;;;;;5028455;28;20062;-80
2021/01/17 06:44:47;;;;;;;;;;;23.10;77.50;;;;;;5028126;28;20004;-79
2021/01/17 06:47:18;;;;;;;;;;;23.10;77.90;;;;;;5028510;28;19936;-79
2021/01/17 06:49:45;;;;;;;;;;;23.10;77.70;;;;;;5028628;28;20566;-82
2021/01/17 06:52:14;;;;;;;;;;;23.10;77.90;;;;;;5024455;28;19913;-82
2021/01/17 06:54:48;;;;;;;;;;;22.80;78.00;;;;;;5017104;28;19913;-79
2021/01/17 06:57:16;;;;;;;;;;;22.90;78.00;;;;;;5030103;28;19940;-83
2021/01/17 06:59:44;;;;;;;;;;;22.90;78.40;;;;;;5029574;28;20011;-81
2021/01/17 07:02:13;;;;;;;;;;;22.90;77.30;;;;;;5029922;28;19944;-79
2021/01/17 07:04:42;;;;;;;;;;;22.80;78.70;;;;;;5077672;27;19924;-83
2021/01/17 07:07:15;;;;;;;;;;;22.90;78.90;;;;;;5121532;27;19964;-81
2021/01/17 07:09:51;;;;;;;;;;;22.80;78.60;;;;;;5131889;27;19990;-82
2021/01/17 07:12:22;;;;;;;;;;;22.80;78.40;;;;;;5063102;27;19917;-82
2021/01/17 07:14:54;;;;;;;;;;;22.60;78.80;;;;;;5061580;27;19945;-83
2021/01/17 07:17:21;;;;;;;;;;;22.50;79.30;;;;;;5027711;27;19970;-79
2021/01/17 07:19:50;;;;;;;;;;;22.40;79.60;;;;;;5028479;28;20016;-81
2021/01/17 07:22:17;;;;;;;;;;;22.50;79.90;;;;;;5028484;28;20655;-83
2021/01/17 07:24:44;;;;;;;;;;;22.50;79.50;;;;;;5028478;28;19910;-80
2021/01/17 07:27:27;;;;;;;;;;;22.50;79.60;;;;;;5029247;28;19913;-79
2021/01/17 07:29:57;;;;;;;;;;;22.50;81.40;;;;;;5028480;28;20324;-82
2021/01/17 07:32:34;;;;;;;;;;;22.50;81.80;;;;;;5027745;28;19909;-83
2021/01/17 07:35:05;;;;;;;;;;;22.40;80.80;;;;;;5028132;28;20333;-82
2021/01/17 07:37:32;;;;;;;;;;;22.20;81.70;;;;;;5027896;28;19917;-83
2021/01/17 07:40:01;;;;;;;;;;;22.30;84.70;;;;;;5028105;28;19915;-80
2021/01/17 07:42:33;;;;;;;;;;;22.20;83.90;;;;;;5028697;28;19913;-81
2021/01/17 07:45:11;;;;;;;;;;;22.10;82.30;;;;;;5026388;28;19914;-85
2021/01/17 07:47:41;;;;;;;;;;;22.10;81.40;;;;;;5026674;28;19910;-82
2021/01/17 07:50:09;;;;;;;;;;;22.00;82.10;;;;;;5026810;28;19958;-82
2021/01/17 07:52:56;;;;;;;;;;;22.00;81.90;;;;;;5027777;28;20027;-83
2021/01/17 07:55:23;;;;;;;;;;;22.00;83.20;;;;;;5027009;28;19917;-82
2021/01/17 07:57:51;;;;;;;;;;;22.00;83.50;;;;;;5028436;28;20013;-82
2021/01/17 08:00:23;;;;;;;;;;;22.00;82.00;;;;;;5027776;28;20371;-83
2021/01/17 08:02:50;;;;;;;;;;;22.10;83.20;;;;;;5008088;28;19913;-82
2021/01/17 08:05:17;;;;;;;;;;;22.20;83.60;;;;;;5008799;28;20300;-82
2021/01/17 08:07:43;;;;;;;;;;;22.10;83.60;;;;;;5022724;28;19914;-82
2021/01/17 08:10:10;;;;;;;;;;;22.10;84.60;;;;;;5028344;28;19913;-85
2021/01/17 08:12:38;;;;;;;;;;;22.00;82.70;;;;;;5029635;28;20000;-85
2021/01/17 08:15:12;;;;;;;;;;;22.10;82.60;;;;;;5029481;28;19952;-82
2021/01/17 08:17:39;;;;;;;;;;;22.00;83.60;;;;;;5067654;28;20378;-82
2021/01/17 08:20:06;;;;;;;;;;;22.00;82.50;;;;;;5089037;27;19920;-83
2021/01/17 08:22:36;;;;;;;;;;;22.00;85.40;;;;;;5029919;28;20028;-83
2021/01/17 08:25:06;;;;;;;;;;;22.00;84.60;;;;;;5030044;28;20008;-84
2021/01/17 08:27:45;;;;;;;;;;;22.00;83.40;;;;;;5027992;28;19910;-84
2021/01/17 08:30:16;;;;;;;;;;;21.90;83.00;;;;;;5009748;28;19923;-84
2021/01/17 08:32:44;;;;;;;;;;;21.90;83.50;;;;;;5006351;28;20012;-84
2021/01/17 08:35:23;;;;;;;;;;;21.90;83.20;;;;;;5008029;28;19961;-84
2021/01/17 08:37:57;;;;;;;;;;;21.90;83.70;;;;;;5022721;28;19924;-85
2021/01/17 08:40:30;;;;;;;;;;;21.90;83.40;;;;;;5017477;28;20375;-85
2021/01/17 08:42:58;;;;;;;;;;;21.90;83.30;;;;;;5055954;27;19966;-85
2021/01/17 08:45:27;;;;;;;;;;;21.90;84.90;;;;;;5028986;28;20279;-84
2021/01/17 08:47:57;;;;;;;;;;;21.80;83.30;;;;;;5027797;28;19913;-86
2021/01/17 08:50:33;;;;;;;;;;;21.70;83.60;;;;;;5028721;28;19958;-85
2021/01/17 08:53:14;;;;;;;;;;;21.70;83.40;;;;;;5029208;28;19913;-84
2021/01/17 08:55:48;;;;;;;;;;;21.70;84.60;;;;;;5060795;27;20019;-83
2021/01/17 08:58:27;;;;;;;;;;;21.70;83.90;;;;;;5060794;27;19968;-84
2021/01/17 09:00:57;;;;;;;;;;;21.70;84.00;;;;;;5073894;28;19913;-83
2021/01/17 09:03:33;;;;;;;;;;;21.60;84.50;;;;;;5028616;28;19913;-84
2021/01/17 09:06:00;;;;;;;;;;;21.60;84.70;;;;;;5028808;28;19925;-85
2021/01/17 09:08:28;;;;;;;;;;;21.60;84.90;;;;;;5028903;28;19910;-82
2021/01/17 09:10:55;;;;;;;;;;;21.60;86.60;;;;;;5030140;28;19956;-84
2021/01/17 09:13:27;;;;;;;;;;;21.70;85.70;;;;;;5062219;27;19945;-85
2021/01/17 09:16:01;;;;;;;;;;;21.70;85.60;;;;;;5029860;28;19917;-84
2021/01/17 09:18:29;;;;;;;;;;;21.60;85.80;;;;;;5057720;28;19966;-84
2021/01/17 09:20:56;;;;;;;;;;;21.60;85.50;;;;;;5029672;28;19917;-85
2021/01/17 09:23:24;;;;;;;;;;;21.60;86.60;;;;;;5028667;28;19913;-84
2021/01/17 09:25:57;;;;;;;;;;;21.60;85.50;;;;;;5029100;28;20407;-84
2021/01/17 09:28:24;;;;;;;;;;;21.50;86.20;;;;;;5029241;28;19914;-84
2021/01/17 09:30:51;;;;;;;;;;;21.60;86.50;;;;;;5028821;28;19921;-84
2021/01/17 09:33:18;;;;;;;;;;;21.60;85.90;;;;;;5028021;28;19920;-82
2021/01/17 09:35:46;;;;;;;;;;;21.70;85.90;;;;;;5016811;28;19918;-85
2021/01/17 09:38:22;;;;;;;;;;;21.60;86.00;;;;;;5029962;28;19916;-84
2021/01/17 09:40:50;;;;;;;;;;;21.60;86.30;;;;;;5029316;28;19917;-83
2021/01/17 09:43:17;;;;;;;;;;;21.60;86.80;;;;;;5050803;27;19924;-83
2021/01/17 09:45:56;;;;;;;;;;;21.60;86.40;;;;;;5048376;28;19973;-83
2021/01/17 09:48:26;;;;;;;;;;;21.60;86.80;;;;;;5026559;28;19914;-84
2021/01/17 09:50:53;;;;;;;;;;;21.60;87.30;;;;;;5061349;27;20008;-83
2021/01/17 09:53:19;;;;;;;;;;;21.60;86.90;;;;;;5029254;28;19913;-85
2021/01/17 09:55:47;;;;;;;;;;;21.60;86.80;;;;;;5029167;28;20016;-84
2021/01/17 09:58:14;;;;;;;;;;;21.60;86.90;;;;;;5029229;28;20422;-83
2021/01/17 10:00:42;;;;;;;;;;;21.60;87.40;;;;;;5029614;28;19909;-84
2021/01/17 10:03:15;;;;;;;;;;;21.60;86.70;;;;;;5028895;28;19917;-83
2021/01/17 10:05:43;;;;;;;;;;;21.60;87.30;;;;;;5029448;28;19977;-83
2021/01/17 10:08:15;;;;;;;;;;;21.60;87.20;;;;;;5025074;28;19924;-85
2021/01/17 10:10:47;;;;;;;;;;;21.60;87.60;;;;;;5035862;27;19913;-84
2021/01/17 10:13:14;;;;;;;;;;;21.70;87.70;;;;;;5030588;28;19921;-83
2021/01/17 10:15:40;;;;;;;;;;;21.70;88.30;;;;;;5029548;28;19921;-82
2021/01/17 10:18:08;;;;;;;;;;;21.70;87.60;;;;;;5028742;28;19917;-84
2021/01/17 10:20:38;;;;;;;;;;;21.70;87.40;;;;;;5029691;28;19913;-83
2021/01/17 10:23:06;;;;;;;;;;;21.70;87.90;;;;;;5030410;28;19965;-83
2021/01/17 10:25:34;;;;;;;;;;;21.70;88.10;;;;;;5030480;28;20355;-83
2021/01/17 10:28:02;;;;;;;;;;;21.60;87.90;;;;;;5032191;28;19921;-84
2021/01/17 10:30:29;;;;;;;;;;;21.60;88.40;;;;;;5051180;28;19918;-83
2021/01/17 10:33:06;;;;;;;;;;;21.70;88.30;;;;;;5028621;28;19958;-84
2021/01/17 10:35:34;;;;;;;;;;;21.70;88.30;;;;;;5030732;28;19917;-81
2021/01/17 10:38:03;;;;;;;;;;;21.70;88.20;;;;;;5028393;28;19921;-82
2021/01/17 10:40:30;;;;;;;;;;;21.70;88.70;;;;;;5028251;28;19914;-82
2021/01/17 10:42:59;;;;;;;;;;;21.70;88.40;;;;;;5027813;28;20348;-82
2021/01/17 10:45:27;;;;;;;;;;;21.60;88.70;;;;;;5037364;27;19917;-82
2021/01/17 10:47:59;;;;;;;;;;;21.70;88.70;;;;;;5029801;27;20538;-82
2021/01/17 10:50:27;;;;;;;;;;;21.60;88.70;;;;;;5026880;28;19969;-83
2021/01/17 10:53:06;;;;;;;;;;;21.60;89.60;;;;;;5028492;28;19920;-83
2021/01/17 10:55:37;;;;;;;;;;;21.50;89.40;;;;;;5047941;28;19918;-83
2021/01/17 10:58:07;;;;;;;;;;;21.60;89.50;;;;;;5024042;28;20312;-83
2021/01/17 11:00:33;;;;;;;;;;;21.60;89.60;;;;;;5027914;28;19913;-82
2021/01/17 11:03:01;;;;;;;;;;;21.60;89.90;;;;;;5027590;28;19921;-88
2021/01/17 11:05:28;;;;;;;;;;;21.50;89.70;;;;;;5026514;28;20000;-86
2021/01/17 11:07:54;;;;;;;;;;;21.60;90.30;;;;;;5026327;28;20414;-83
2021/01/17 11:10:24;;;;;;;;;;;21.60;90.00;;;;;;5024877;27;19917;-83
2021/01/17 11:12:54;;;;;;;;;;;21.60;89.80;;;;;;5028922;28;19913;-83
2021/01/17 11:15:21;;;;;;;;;;;21.70;90.20;;;;;;5027431;28;19917;-83
2021/01/17 11:17:52;;;;;;;;;;;21.60;90.00;;;;;;5031189;28;20057;-84
2021/01/17 11:20:23;;;;;;;;;;;21.70;90.00;;;;;;5028690;28;19951;-86
2021/01/17 11:22:51;;;;;;;;;;;21.70;90.10;;;;;;5029542;28;19917;-82
2021/01/17 11:25:21;;;;;;;;;;;21.60;90.10;;;;;;5028493;28;20363;-83
2021/01/17 11:27:47;;;;;;;;;;;21.60;90.20;;;;;;5027938;28;19996;-86
2021/01/17 11:30:15;;;;;;;;;;;21.70;90.10;;;;;;5028069;28;19917;-85
2021/01/17 11:32:42;;;;;;;;;;;21.70;90.00;;;;;;5033127;28;19913;-83
2021/01/17 11:35:29;;;;;;;;;;;21.70;90.00;;;;;;5027758;28;19913;-83
2021/01/17 11:37:57;;;;;;;;;;;21.70;90.10;;;;;;5027686;28;20363;-83
2021/01/17 11:40:24;;;;;;;;;;;21.60;90.30;;;;;;5027873;28;19977;-83
2021/01/17 11:42:50;;;;;;;;;;;21.60;90.40;;;;;;5027161;28;19909;-83
2021/01/17 11:45:21;;;;;;;;;;;21.60;90.40;;;;;;5025091;28;19909;-83
2021/01/17 11:48:00;;;;;;;;;;;21.60;90.40;;;;;;5029425;28;20291;-84
2021/01/17 11:50:27;;;;;;;;;;;21.70;90.60;;;;;;5025939;28;19913;-81
2021/01/17 11:52:57;;;;;;;;;;;21.60;90.40;;;;;;5027398;28;19913;-81
2021/01/17 11:55:24;;;;;;;;;;;21.60;90.50;;;;;;5029110;28;20307;-84
2021/01/17 11:57:51;;;;;;;;;;;21.60;90.60;;;;;;5028417;28;20010;-84
2021/01/17 12:00:18;;;;;;;;;;;21.60;90.70;;;;;;5026349;28;20399;-83
2021/01/17 12:02:46;;;;;;;;;;;21.60;90.80;;;;;;5028721;28;19918;-83
2021/01/17 12:05:16;;;;;;;;;;;21.60;90.90;;;;;;5026172;28;19921;-83
2021/01/17 12:07:59;;;;;;;;;;;21.50;90.80;;;;;;5026842;28;21309;-83
2021/01/17 12:10:25;;;;;;;;;;;21.50;90.70;;;;;;5028259;28;19913;-84
2021/01/17 12:12:53;;;;;;;;;;;21.50;90.70;;;;;;5032076;27;19909;-84
2021/01/17 12:15:22;;;;;;;;;;;21.40;90.80;;;;;;5026613;28;20489;-83
2021/01/17 12:17:49;;;;;;;;;;;21.40;91.00;;;;;;5028492;28;19924;-83
2021/01/17 12:20:15;;;;;;;;;;;21.40;91.10;;;;;;5027208;28;19962;-84
2021/01/17 12:22:42;;;;;;;;;;;21.40;91.00;;;;;;5028539;28;19913;-85
2021/01/17 12:25:09;;;;;;;;;;;21.40;91.10;;;;;;5021947;28;20302;-84
2021/01/17 12:27:36;;;;;;;;;;;21.50;91.00;;;;;;5027845;28;20319;-84
2021/01/17 12:30:03;;;;;;;;;;;21.50;91.10;;;;;;5024730;28;19920;-84
2021/01/17 12:32:30;;;;;;;;;;;21.50;91.10;;;;;;5030311;27;19913;-83
2021/01/17 12:34:56;;;;;;;;;;;21.50;91.10;;;;;;5031990;28;19913;-88
2021/01/17 12:37:23;;;;;;;;;;;21.50;91.10;;;;;;5030605;28;20347;-86
2021/01/17 12:39:50;;;;;;;;;;;21.40;91.20;;;;;;5031502;28;19909;-84
2021/01/17 12:42:16;;;;;;;;;;;21.40;91.30;;;;;;5036740;28;19913;-82
2021/01/17 12:44:43;;;;;;;;;;;21.50;91.30;;;;;;5035303;28;19924;-82
2021/01/17 12:47:10;;;;;;;;;;;21.50;91.30;;;;;;5034643;27;19917;-85
2021/01/17 12:49:36;;;;;;;;;;;21.50;91.40;;;;;;5032758;27;20435;-84
2021/01/17 12:52:03;;;;;;;;;;;21.50;91.40;;;;;;5035562;28;19917;-86
2021/01/17 12:54:30;;;;;;;;;;;21.50;91.40;;;;;;5035311;28;19965;-83
2021/01/17 12:56:56;;;;;;;;;;;21.50;91.50;;;;;;5034899;28;20012;-83
2021/01/17 12:59:23;;;;;;;;;;;21.50;91.50;;;;;;5035072;28;19921;-84
2021/01/17 13:01:50;;;;;;;;;;;21.40;91.60;;;;;;5033582;27;19913;-87
2021/01/17 13:04:16;;;;;;;;;;;21.50;91.70;;;;;;5037776;27;20360;-87
2021/01/17 13:06:43;;;;;;;;;;;21.60;91.70;;;;;;5036503;27;20321;-87
2021/01/17 13:09:10;;;;;;;;;;;21.60;91.70;;;;;;5032765;28;20024;-83
2021/01/17 13:11:36;;;;;;;;;;;21.50;91.90;;;;;;5036856;27;20066;-83
2021/01/17 13:14:03;;;;;;;;;;;21.50;91.80;;;;;;5034698;27;19915;-84
2021/01/17 13:16:30;;;;;;;;;;;21.50;91.90;;;;;;5031272;28;20409;-86
2021/01/17 13:18:57;;;;;;;;;;;21.40;92.00;;;;;;5033237;28;19909;-90
2021/01/17 13:21:23;;;;;;;;;;;21.40;92.10;;;;;;5033551;28;19909;-87
2021/01/17 13:23:51;;;;;;;;;;;21.50;92.10;;;;;;5033278;28;19913;-88
2021/01/17 13:26:23;;;;;;;;;;;21.50;92.30;;;;;;5032642;28;19909;-89
2021/01/17 13:28:50;;;;;;;;;;;21.50;92.50;;;;;;5033112;28;19921;-88
2021/01/17 13:31:17;;;;;;;;;;;21.40;92.50;;;;;;5034558;28;19921;-87
2021/01/17 13:33:43;;;;;;;;;;;21.40;92.70;;;;;;5037849;27;19915;-89
2021/01/17 13:36:10;;;;;;;;;;;21.40;92.60;;;;;;5035949;27;19940;-84
2021/01/17 13:38:38;;;;;;;;;;;21.30;92.60;;;;;;5036920;28;19920;-84
2021/01/17 13:41:05;;;;;;;;;;;21.30;92.50;;;;;;5037204;28;19953;-84
2021/01/17 13:43:32;;;;;;;;;;;21.40;92.50;;;;;;5036878;28;19910;-89
2021/01/17 13:46:01;;;;;;;;;;;21.30;92.50;;;;;;5034155;28;20416;-84
2021/01/17 13:48:27;;;;;;;;;;;21.40;92.50;;;;;;5034269;27;19916;-83
2021/01/17 13:50:54;;;;;;;;;;;21.30;92.50;;;;;;5039101;27;19921;-86
2021/01/17 13:53:22;;;;;;;;;;;21.30;92.60;;;;;;5036498;27;19913;-83
2021/01/17 13:55:49;;;;;;;;;;;21.30;92.60;;;;;;5029717;27;19924;-88
2021/01/17 13:58:16;;;;;;;;;;;21.40;92.70;;;;;;5030451;27;20374;-82
2021/01/17 14:00:42;;;;;;;;;;;21.40;92.60;;;;;;5034358;27;20411;-83
2021/01/17 14:03:09;;;;;;;;;;;21.40;92.60;;;;;;5032800;27;19962;-87
2021/01/17 14:05:36;;;;;;;;;;;21.40;92.60;;;;;;5031992;28;19921;-86
2021/01/17 14:08:02;;;;;;;;;;;21.50;92.40;;;;;;5034187;27;19917;-87
2021/01/17 14:10:29;;;;;;;;;;;21.40;92.50;;;;;;5033315;27;19969;-87
2021/01/17 14:12:56;;;;;;;;;;;21.40;92.60;;;;;;5032464;28;19916;-85
2021/01/17 14:15:24;;;;;;;;;;;21.40;92.70;;;;;;5033951;27;19923;-82
2021/01/17 14:17:52;;;;;;;;;;;21.30;92.60;;;;;;5061639;27;19913;-82
2021/01/17 14:20:20;;;;;;;;;;;21.40;92.60;;;;;;5042560;27;19959;-83
2021/01/17 14:22:47;;;;;;;;;;;21.40;92.60;;;;;;5062678;27;19919;-85
2021/01/17 14:25:17;;;;;;;;;;;21.30;92.90;;;;;;5034947;27;19984;-87
2021/01/17 14:27:44;;;;;;;;;;;21.30;92.90;;;;;;5031371;28;20350;-86
2021/01/17 14:30:11;;;;;;;;;;;21.30;93.00;;;;;;5030199;28;19909;-85
2021/01/17 14:32:38;;;;;;;;;;;21.20;93.20;;;;;;5031705;28;20304;-83